sensor_id;sensor_type;location;lat;lon;timestamp;temperature;humidity
4501;DHT22;2263;54.654;9.410;2022-11-20T00:01:32;4.90;81.10
4501;DHT22;2263;54.654;9.410;2022-11-20T00:03:59;4.90;81.00
4501;DHT22;2263;54.654;9.410;2022-11-20T00:06:28;4.90;81.00
4501;DHT22;2263;54.654;9.410;2022-11-20T00:08:57;4.90;81.10
4501;DHT22;2263;54.654;9.410;2022-11-20T00:11:26;4.90;81.30
4501;DHT22;2263;54.654;9.410;2022-11-20T00:13:56;4.90;81.20
4501;DHT22;2263;54.654;9.410;2022-11-20T00:16:27;4.90;81.20
4501;DHT22;2263;54.654;9.410;2022-11-20T00:18:55;4.90;81.10
4501;DHT22;2263;54.654;9.410;2022-11-20T00:21:27;4.90;81.10
4501;DHT22;2263;54.654;9.410;2022-11-20T00:23:56;4.90;81.20
4501;DHT22;2263;54.654;9.410;2022-11-20T00:26:25;4.90;81.10
4501;DHT22;2263;54.654;9.410;2022-11-20T00:28:55;4.90;81.20
4501;DHT22;2263;54.654;9.410;2022-11-20T00:31:23;4.90;81.10
4501;DHT22;2263;54.654;9.410;2022-11-20T00:33:51;4.90;81.20
4501;DHT22;2263;54.654;9.410;2022-11-20T00:36:20;4.80;81.10
4501;DHT22;2263;54.654;9.410;2022-11-20T00:38:51;4.80;81.10
4501;DHT22;2263;54.654;9.410;2022-11-20T00:41:20;4.90;81.10
4501;DHT22;2263;54.654;9.410;2022-11-20T00:43:47;4.80;81.00
4501;DHT22;2263;54.654;9.410;2022-11-20T00:46:19;4.80;81.00
4501;DHT22;2263;54.654;9.410;2022-11-20T00:48:47;4.80;81.10
4501;DHT22;2263;54.654;9.410;2022-11-20T00:51:16;4.80;81.20
4501;DHT22;2263;54.654;9.410;2022-11-20T00:53:44;4.80;81.10
4501;DHT22;2263;54.654;9.410;2022-11-20T00:56:14;4.80;81.00
4501;DHT22;2263;54.654;9.410;2022-11-20T00:58:44;4.80;81.00
4501;DHT22;2263;54.654;9.410;2022-11-20T01:01:19;4.80;81.30
4501;DHT22;2263;54.654;9.410;2022-11-20T01:03:48;4.80;81.20
4501;DHT22;2263;54.654;9.410;2022-11-20T01:08:45;4.80;81.00
4501;DHT22;2263;54.654;9.410;2022-11-20T01:11:24;4.80;81.10
4501;DHT22;2263;54.654;9.410;2022-11-20T01:13:52;4.80;81.20
4501;DHT22;2263;54.654;9.410;2022-11-20T01:16:35;4.70;81.10
4501;DHT22;2263;54.654;9.410;2022-11-20T01:19:04;4.70;81.00
4501;DHT22;2263;54.654;9.410;2022-11-20T01:21:34;4.70;80.90
4501;DHT22;2263;54.654;9.410;2022-11-20T01:24:03;4.70;80.90
4501;DHT22;2263;54.654;9.410;2022-11-20T01:26:33;4.70;81.10
4501;DHT22;2263;54.654;9.410;2022-11-20T01:29:02;4.70;81.00
4501;DHT22;2263;54.654;9.410;2022-11-20T01:31:32;4.70;81.20
4501;DHT22;2263;54.654;9.410;2022-11-20T01:34:01;4.70;81.00
4501;DHT22;2263;54.654;9.410;2022-11-20T01:36:30;4.70;81.10
4501;DHT22;2263;54.654;9.410;2022-11-20T01:38:59;4.70;81.00
4501;DHT22;2263;54.654;9.410;2022-11-20T01:41:29;4.70;80.80
4501;DHT22;2263;54.654;9.410;2022-11-20T01:44:17;4.70;81.10
4501;DHT22;2263;54.654;9.410;2022-11-20T01:47:03;4.60;80.90
4501;DHT22;2263;54.654;9.410;2022-11-20T01:49:39;4.60;80.90
4501;DHT22;2263;54.654;9.410;2022-11-20T01:52:22;4.60;81.20
4501;DHT22;2263;54.654;9.410;2022-11-20T01:57:29;4.60;81.10
4501;DHT22;2263;54.654;9.410;2022-11-20T02:00:07;4.60;81.00
4501;DHT22;2263;54.654;9.410;2022-11-20T02:02:36;4.60;81.20
4501;DHT22;2263;54.654;9.410;2022-11-20T02:07:57;4.60;81.00
4501;DHT22;2263;54.654;9.410;2022-11-20T02:10:25;4.60;81.00
4501;DHT22;2263;54.654;9.410;2022-11-20T02:12:54;4.60;81.00
4501;DHT22;2263;54.654;9.410;2022-11-20T02:15:40;4.60;81.10
4501;DHT22;2263;54.654;9.410;2022-11-20T02:18:07;4.60;81.60
4501;DHT22;2263;54.654;9.410;2022-11-20T02:20:36;4.50;81.00
4501;DHT22;2263;54.654;9.410;2022-11-20T02:23:16;4.50;81.30
4501;DHT22;2263;54.654;9.410;2022-11-20T02:25:48;4.50;81.10
4501;DHT22;2263;54.654;9.410;2022-11-20T02:28:17;4.50;81.10
4501;DHT22;2263;54.654;9.410;2022-11-20T02:30:44;4.50;81.00
4501;DHT22;2263;54.654;9.410;2022-11-20T02:33:12;4.50;81.10
4501;DHT22;2263;54.654;9.410;2022-11-20T02:35:42;4.50;81.10
4501;DHT22;2263;54.654;9.410;2022-11-20T02:38:10;4.50;81.00
4501;DHT22;2263;54.654;9.410;2022-11-20T02:40:37;4.50;81.20
4501;DHT22;2263;54.654;9.410;2022-11-20T02:43:04;4.50;81.10
4501;DHT22;2263;54.654;9.410;2022-11-20T02:45:32;4.50;81.30
4501;DHT22;2263;54.654;9.410;2022-11-20T02:47:59;4.50;81.30
4501;DHT22;2263;54.654;9.410;2022-11-20T02:50:26;4.40;81.20
4501;DHT22;2263;54.654;9.410;2022-11-20T02:52:53;4.50;81.50
4501;DHT22;2263;54.654;9.410;2022-11-20T02:55:20;4.40;81.30
4501;DHT22;2263;54.654;9.410;2022-11-20T02:57:48;4.40;81.20
4501;DHT22;2263;54.654;9.410;2022-11-20T03:00:15;4.40;81.20
4501;DHT22;2263;54.654;9.410;2022-11-20T03:02:42;4.40;81.30
4501;DHT22;2263;54.654;9.410;2022-11-20T03:05:09;4.40;81.30
4501;DHT22;2263;54.654;9.410;2022-11-20T03:07:36;4.40;81.30
4501;DHT22;2263;54.654;9.410;2022-11-20T03:10:04;4.40;82.00
4501;DHT22;2263;54.654;9.410;2022-11-20T03:12:32;4.40;81.60
4501;DHT22;2263;54.654;9.410;2022-11-20T03:14:59;4.40;81.70
4501;DHT22;2263;54.654;9.410;2022-11-20T03:17:26;4.40;81.60
4501;DHT22;2263;54.654;9.410;2022-11-20T03:19:53;4.40;81.50
4501;DHT22;2263;54.654;9.410;2022-11-20T03:22:20;4.40;81.40
4501;DHT22;2263;54.654;9.410;2022-11-20T03:24:47;4.40;81.40
4501;DHT22;2263;54.654;9.410;2022-11-20T03:27:14;4.40;81.40
4501;DHT22;2263;54.654;9.410;2022-11-20T03:29:42;4.40;81.40
4501;DHT22;2263;54.654;9.410;2022-11-20T03:32:09;4.40;81.40
4501;DHT22;2263;54.654;9.410;2022-11-20T03:34:36;4.40;81.50
4501;DHT22;2263;54.654;9.410;2022-11-20T03:37:03;4.40;81.50
4501;DHT22;2263;54.654;9.410;2022-11-20T03:39:30;4.40;81.50
4501;DHT22;2263;54.654;9.410;2022-11-20T03:41:57;4.40;81.50
4501;DHT22;2263;54.654;9.410;2022-11-20T03:44:24;4.30;81.50
4501;DHT22;2263;54.654;9.410;2022-11-20T03:46:52;4.40;81.70
4501;DHT22;2263;54.654;9.410;2022-11-20T03:49:19;4.40;81.80
4501;DHT22;2263;54.654;9.410;2022-11-20T03:51:46;4.30;81.70
4501;DHT22;2263;54.654;9.410;2022-11-20T03:54:14;4.30;81.50
4501;DHT22;2263;54.654;9.410;2022-11-20T03:56:41;4.30;81.60
4501;DHT22;2263;54.654;9.410;2022-11-20T03:59:10;4.30;81.60
4501;DHT22;2263;54.654;9.410;2022-11-20T04:01:37;4.30;81.70
4501;DHT22;2263;54.654;9.410;2022-11-20T04:04:05;4.30;81.60
4501;DHT22;2263;54.654;9.410;2022-11-20T04:06:37;4.30;81.60
4501;DHT22;2263;54.654;9.410;2022-11-20T04:09:05;4.30;81.60
4501;DHT22;2263;54.654;9.410;2022-11-20T04:11:35;4.30;81.70
4501;DHT22;2263;54.654;9.410;2022-11-20T04:14:05;4.30;81.70
4501;DHT22;2263;54.654;9.410;2022-11-20T04:16:35;4.30;81.70
4501;DHT22;2263;54.654;9.410;2022-11-20T04:19:09;4.30;81.70
4501;DHT22;2263;54.654;9.410;2022-11-20T04:21:36;4.30;81.80
4501;DHT22;2263;54.654;9.410;2022-11-20T04:24:04;4.30;81.70
4501;DHT22;2263;54.654;9.410;2022-11-20T04:26:31;4.30;81.70
4501;DHT22;2263;54.654;9.410;2022-11-20T04:28:59;4.30;81.70
4501;DHT22;2263;54.654;9.410;2022-11-20T04:31:34;4.30;81.70
4501;DHT22;2263;54.654;9.410;2022-11-20T04:34:06;4.30;81.80
4501;DHT22;2263;54.654;9.410;2022-11-20T04:36:33;4.20;81.70
4501;DHT22;2263;54.654;9.410;2022-11-20T04:39:03;4.20;81.70
4501;DHT22;2263;54.654;9.410;2022-11-20T04:41:34;4.20;81.70
4501;DHT22;2263;54.654;9.410;2022-11-20T04:44:03;4.20;81.80
4501;DHT22;2263;54.654;9.410;2022-11-20T04:46:36;4.20;81.80
4501;DHT22;2263;54.654;9.410;2022-11-20T04:49:04;4.20;81.90
4501;DHT22;2263;54.654;9.410;2022-11-20T04:51:32;4.20;81.90
4501;DHT22;2263;54.654;9.410;2022-11-20T04:53:59;4.20;81.80
4501;DHT22;2263;54.654;9.410;2022-11-20T04:56:27;4.20;81.80
4501;DHT22;2263;54.654;9.410;2022-11-20T04:58:54;4.20;81.90
4501;DHT22;2263;54.654;9.410;2022-11-20T05:01:23;4.20;82.00
4501;DHT22;2263;54.654;9.410;2022-11-20T05:03:51;4.20;82.00
4501;DHT22;2263;54.654;9.410;2022-11-20T05:06:20;4.20;81.90
4501;DHT22;2263;54.654;9.410;2022-11-20T05:08:48;4.20;82.00
4501;DHT22;2263;54.654;9.410;2022-11-20T05:11:18;4.20;82.00
4501;DHT22;2263;54.654;9.410;2022-11-20T05:13:45;4.20;82.00
4501;DHT22;2263;54.654;9.410;2022-11-20T05:16:18;4.20;82.10
4501;DHT22;2263;54.654;9.410;2022-11-20T05:18:46;4.20;82.20
4501;DHT22;2263;54.654;9.410;2022-11-20T05:21:14;4.20;82.30
4501;DHT22;2263;54.654;9.410;2022-11-20T05:23:42;4.10;82.10
4501;DHT22;2263;54.654;9.410;2022-11-20T05:26:17;4.20;82.20
4501;DHT22;2263;54.654;9.410;2022-11-20T05:28:44;4.10;82.20
4501;DHT22;2263;54.654;9.410;2022-11-20T05:31:14;4.10;82.10
4501;DHT22;2263;54.654;9.410;2022-11-20T05:33:44;4.10;82.10
4501;DHT22;2263;54.654;9.410;2022-11-20T05:36:13;4.10;82.20
4501;DHT22;2263;54.654;9.410;2022-11-20T05:38:41;4.10;82.20
4501;DHT22;2263;54.654;9.410;2022-11-20T05:41:13;4.10;82.30
4501;DHT22;2263;54.654;9.410;2022-11-20T05:43:42;4.10;82.40
4501;DHT22;2263;54.654;9.410;2022-11-20T05:46:12;4.10;82.30
4501;DHT22;2263;54.654;9.410;2022-11-20T05:48:41;4.10;82.20
4501;DHT22;2263;54.654;9.410;2022-11-20T05:51:13;4.10;82.20
4501;DHT22;2263;54.654;9.410;2022-11-20T05:53:41;4.10;82.10
4501;DHT22;2263;54.654;9.410;2022-11-20T05:56:17;4.10;82.10
4501;DHT22;2263;54.654;9.410;2022-11-20T05:58:45;4.10;82.10
4501;DHT22;2263;54.654;9.410;2022-11-20T06:01:24;4.10;82.20
4501;DHT22;2263;54.654;9.410;2022-11-20T06:03:54;4.10;82.20
4501;DHT22;2263;54.654;9.410;2022-11-20T06:06:22;4.10;82.20
4501;DHT22;2263;54.654;9.410;2022-11-20T06:08:49;4.10;82.20
4501;DHT22;2263;54.654;9.410;2022-11-20T06:11:17;4.10;82.20
4501;DHT22;2263;54.654;9.410;2022-11-20T06:13:45;4.10;82.20
4501;DHT22;2263;54.654;9.410;2022-11-20T06:16:14;4.10;82.20
4501;DHT22;2263;54.654;9.410;2022-11-20T06:18:42;4.10;82.20
4501;DHT22;2263;54.654;9.410;2022-11-20T06:21:12;4.10;82.30
4501;DHT22;2263;54.654;9.410;2022-11-20T06:23:39;4.10;82.20
4501;DHT22;2263;54.654;9.410;2022-11-20T06:26:16;4.00;82.10
4501;DHT22;2263;54.654;9.410;2022-11-20T06:28:44;4.00;82.10
4501;DHT22;2263;54.654;9.410;2022-11-20T06:31:13;4.00;82.20
4501;DHT22;2263;54.654;9.410;2022-11-20T06:33:42;4.00;82.40
4501;DHT22;2263;54.654;9.410;2022-11-20T06:36:11;4.00;82.20
4501;DHT22;2263;54.654;9.410;2022-11-20T06:38:39;4.00;82.20
4501;DHT22;2263;54.654;9.410;2022-11-20T06:41:12;4.00;82.20
4501;DHT22;2263;54.654;9.410;2022-11-20T06:43:40;4.00;82.20
4501;DHT22;2263;54.654;9.410;2022-11-20T06:46:09;4.00;82.20
4501;DHT22;2263;54.654;9.410;2022-11-20T06:48:37;4.00;82.20
4501;DHT22;2263;54.654;9.410;2022-11-20T06:51:05;4.00;82.20
4501;DHT22;2263;54.654;9.410;2022-11-20T06:53:34;4.00;82.30
4501;DHT22;2263;54.654;9.410;2022-11-20T06:56:02;3.90;82.10
4501;DHT22;2263;54.654;9.410;2022-11-20T06:58:31;3.90;82.10
4501;DHT22;2263;54.654;9.410;2022-11-20T07:01:03;3.90;82.10
4501;DHT22;2263;54.654;9.410;2022-11-20T07:03:31;4.00;82.20
4501;DHT22;2263;54.654;9.410;2022-11-20T07:06:00;3.90;82.10
4501;DHT22;2263;54.654;9.410;2022-11-20T07:08:28;3.90;82.10
4501;DHT22;2263;54.654;9.410;2022-11-20T07:11:03;3.90;82.10
4501;DHT22;2263;54.654;9.410;2022-11-20T07:13:31;3.90;82.00
4501;DHT22;2263;54.654;9.410;2022-11-20T07:16:03;3.90;82.00
4501;DHT22;2263;54.654;9.410;2022-11-20T07:18:31;3.90;82.00
4501;DHT22;2263;54.654;9.410;2022-11-20T07:21:03;3.90;82.00
4501;DHT22;2263;54.654;9.410;2022-11-20T07:23:31;3.80;82.00
4501;DHT22;2263;54.654;9.410;2022-11-20T07:26:02;3.80;82.00
4501;DHT22;2263;54.654;9.410;2022-11-20T07:28:29;3.80;81.90
4501;DHT22;2263;54.654;9.410;2022-11-20T07:30:56;3.80;81.80
4501;DHT22;2263;54.654;9.410;2022-11-20T07:33:24;3.80;81.90
4501;DHT22;2263;54.654;9.410;2022-11-20T07:35:51;3.80;81.80
4501;DHT22;2263;54.654;9.410;2022-11-20T07:38:18;3.80;81.80
4501;DHT22;2263;54.654;9.410;2022-11-20T07:40:45;3.80;81.80
4501;DHT22;2263;54.654;9.410;2022-11-20T07:43:12;3.80;81.80
4501;DHT22;2263;54.654;9.410;2022-11-20T07:45:39;3.80;81.80
4501;DHT22;2263;54.654;9.410;2022-11-20T07:48:07;3.80;81.90
4501;DHT22;2263;54.654;9.410;2022-11-20T07:50:34;3.80;81.80
4501;DHT22;2263;54.654;9.410;2022-11-20T07:53:05;3.80;81.90
4501;DHT22;2263;54.654;9.410;2022-11-20T07:55:32;3.80;81.90
4501;DHT22;2263;54.654;9.410;2022-11-20T07:57:59;3.80;81.90
4501;DHT22;2263;54.654;9.410;2022-11-20T08:00:27;3.80;81.90
4501;DHT22;2263;54.654;9.410;2022-11-20T08:02:54;3.80;81.80
4501;DHT22;2263;54.654;9.410;2022-11-20T08:05:22;3.80;81.80
4501;DHT22;2263;54.654;9.410;2022-11-20T08:07:49;3.70;81.80
4501;DHT22;2263;54.654;9.410;2022-11-20T08:10:17;3.70;81.80
4501;DHT22;2263;54.654;9.410;2022-11-20T08:12:49;3.70;81.80
4501;DHT22;2263;54.654;9.410;2022-11-20T08:15:36;3.70;81.80
4501;DHT22;2263;54.654;9.410;2022-11-20T08:18:09;3.70;81.80
4501;DHT22;2263;54.654;9.410;2022-11-20T08:21:01;3.70;81.80
4501;DHT22;2263;54.654;9.410;2022-11-20T08:23:29;3.70;81.80
4501;DHT22;2263;54.654;9.410;2022-11-20T08:25:57;3.80;82.00
4501;DHT22;2263;54.654;9.410;2022-11-20T08:28:25;3.70;81.80
4501;DHT22;2263;54.654;9.410;2022-11-20T08:30:58;3.70;81.90
4501;DHT22;2263;54.654;9.410;2022-11-20T08:33:25;3.70;81.90
4501;DHT22;2263;54.654;9.410;2022-11-20T08:35:53;3.70;81.90
4501;DHT22;2263;54.654;9.410;2022-11-20T08:38:20;3.70;82.00
4501;DHT22;2263;54.654;9.410;2022-11-20T08:40:47;3.70;82.00
4501;DHT22;2263;54.654;9.410;2022-11-20T08:43:36;3.70;82.00
4501;DHT22;2263;54.654;9.410;2022-11-20T08:46:04;3.70;82.00
4501;DHT22;2263;54.654;9.410;2022-11-20T08:48:31;3.70;82.00
4501;DHT22;2263;54.654;9.410;2022-11-20T08:50:59;3.70;82.00
4501;DHT22;2263;54.654;9.410;2022-11-20T08:53:27;3.80;82.10
4501;DHT22;2263;54.654;9.410;2022-11-20T08:55:54;3.80;82.10
4501;DHT22;2263;54.654;9.410;2022-11-20T08:58:24;3.80;82.10
4501;DHT22;2263;54.654;9.410;2022-11-20T09:00:52;3.80;82.20
4501;DHT22;2263;54.654;9.410;2022-11-20T09:03:20;3.70;82.10
4501;DHT22;2263;54.654;9.410;2022-11-20T09:05:47;3.70;82.10
4501;DHT22;2263;54.654;9.410;2022-11-20T09:08:14;3.70;82.10
4501;DHT22;2263;54.654;9.410;2022-11-20T09:10:41;3.70;82.20
4501;DHT22;2263;54.654;9.410;2022-11-20T09:13:08;3.70;82.20
4501;DHT22;2263;54.654;9.410;2022-11-20T09:15:36;3.70;82.10
4501;DHT22;2263;54.654;9.410;2022-11-20T09:18:03;3.70;82.20
4501;DHT22;2263;54.654;9.410;2022-11-20T09:20:31;3.70;82.20
4501;DHT22;2263;54.654;9.410;2022-11-20T09:22:58;3.70;82.20
4501;DHT22;2263;54.654;9.410;2022-11-20T09:25:26;3.70;82.20
4501;DHT22;2263;54.654;9.410;2022-11-20T09:27:57;3.70;82.30
4501;DHT22;2263;54.654;9.410;2022-11-20T09:30:25;3.70;82.30
4501;DHT22;2263;54.654;9.410;2022-11-20T09:32:52;3.70;82.60
4501;DHT22;2263;54.654;9.410;2022-11-20T09:35:20;3.70;82.20
4501;DHT22;2263;54.654;9.410;2022-11-20T09:37:47;3.70;82.10
4501;DHT22;2263;54.654;9.410;2022-11-20T09:40:28;3.70;82.10
4501;DHT22;2263;54.654;9.410;2022-11-20T09:43:16;3.80;82.20
4501;DHT22;2263;54.654;9.410;2022-11-20T09:51:32;3.80;82.10
4501;DHT22;2263;54.654;9.410;2022-11-20T09:54:18;3.90;82.10
4501;DHT22;2263;54.654;9.410;2022-11-20T09:57:01;3.90;82.00
4501;DHT22;2263;54.654;9.410;2022-11-20T09:59:37;3.90;82.10
4501;DHT22;2263;54.654;9.410;2022-11-20T10:07:30;3.90;82.10
4501;DHT22;2263;54.654;9.410;2022-11-20T10:09:59;4.00;82.20
4501;DHT22;2263;54.654;9.410;2022-11-20T10:13:05;4.00;82.10
4501;DHT22;2263;54.654;9.410;2022-11-20T10:16:31;4.10;82.20
4501;DHT22;2263;54.654;9.410;2022-11-20T10:21:39;4.10;82.10
4501;DHT22;2263;54.654;9.410;2022-11-20T10:29:40;4.10;82.20
4501;DHT22;2263;54.654;9.410;2022-11-20T10:32:29;4.10;82.20
4501;DHT22;2263;54.654;9.410;2022-11-20T10:35:34;4.10;82.20
4501;DHT22;2263;54.654;9.410;2022-11-20T10:38:09;4.10;82.20
4501;DHT22;2263;54.654;9.410;2022-11-20T10:40:49;4.20;82.30
4501;DHT22;2263;54.654;9.410;2022-11-20T10:43:32;4.20;82.20
4501;DHT22;2263;54.654;9.410;2022-11-20T10:46:10;4.20;82.10
4501;DHT22;2263;54.654;9.410;2022-11-20T10:48:43;4.30;82.30
4501;DHT22;2263;54.654;9.410;2022-11-20T10:56:41;4.40;82.20
4501;DHT22;2263;54.654;9.410;2022-11-20T11:02:20;4.40;82.20
4501;DHT22;2263;54.654;9.410;2022-11-20T11:04:53;4.40;82.10
4501;DHT22;2263;54.654;9.410;2022-11-20T11:07:24;4.40;82.10
4501;DHT22;2263;54.654;9.410;2022-11-20T11:09:55;4.40;82.10
4501;DHT22;2263;54.654;9.410;2022-11-20T11:12:25;4.40;82.20
4501;DHT22;2263;54.654;9.410;2022-11-20T11:14:55;4.40;82.20
4501;DHT22;2263;54.654;9.410;2022-11-20T11:17:31;4.50;82.30
4501;DHT22;2263;54.654;9.410;2022-11-20T11:20:00;4.50;82.30
4501;DHT22;2263;54.654;9.410;2022-11-20T11:22:29;4.50;82.30
4501;DHT22;2263;54.654;9.410;2022-11-20T11:24:58;4.50;82.20
4501;DHT22;2263;54.654;9.410;2022-11-20T11:27:25;4.50;82.20
4501;DHT22;2263;54.654;9.410;2022-11-20T11:33:05;4.50;82.20
4501;DHT22;2263;54.654;9.410;2022-11-20T11:35:33;4.50;82.20
4501;DHT22;2263;54.654;9.410;2022-11-20T11:38:12;4.50;82.20
4501;DHT22;2263;54.654;9.410;2022-11-20T11:40:41;4.60;82.10
4501;DHT22;2263;54.654;9.410;2022-11-20T11:43:22;4.60;82.00
4501;DHT22;2263;54.654;9.410;2022-11-20T11:49:18;4.60;82.10
4501;DHT22;2263;54.654;9.410;2022-11-20T11:55:07;4.50;82.20
4501;DHT22;2263;54.654;9.410;2022-11-20T11:58:08;4.50;82.20
4501;DHT22;2263;54.654;9.410;2022-11-20T12:00:39;4.50;82.30
4501;DHT22;2263;54.654;9.410;2022-11-20T12:03:16;4.40;82.30
4501;DHT22;2263;54.654;9.410;2022-11-20T12:05:51;4.40;82.40
4501;DHT22;2263;54.654;9.410;2022-11-20T12:11:49;4.40;82.40
4501;DHT22;2263;54.654;9.410;2022-11-20T12:14:32;4.40;82.40
4501;DHT22;2263;54.654;9.410;2022-11-20T12:17:02;4.50;82.30
4501;DHT22;2263;54.654;9.410;2022-11-20T12:19:30;4.50;82.30
4501;DHT22;2263;54.654;9.410;2022-11-20T12:22:02;4.40;82.10
4501;DHT22;2263;54.654;9.410;2022-11-20T12:24:42;4.40;82.20
4501;DHT22;2263;54.654;9.410;2022-11-20T12:30:18;4.50;82.30
4501;DHT22;2263;54.654;9.410;2022-11-20T12:50:46;4.50;82.00
4501;DHT22;2263;54.654;9.410;2022-11-20T13:00:00;4.50;81.90
4501;DHT22;2263;54.654;9.410;2022-11-20T13:07:50;4.50;82.00
4501;DHT22;2263;54.654;9.410;2022-11-20T13:13:23;4.50;81.80
4501;DHT22;2263;54.654;9.410;2022-11-20T13:16:01;4.50;81.60
4501;DHT22;2263;54.654;9.410;2022-11-20T13:18:37;4.50;81.60
4501;DHT22;2263;54.654;9.410;2022-11-20T13:21:16;4.50;81.80
4501;DHT22;2263;54.654;9.410;2022-11-20T13:23:43;4.50;81.80
4501;DHT22;2263;54.654;9.410;2022-11-20T13:26:29;4.50;81.70
4501;DHT22;2263;54.654;9.410;2022-11-20T13:29:19;4.50;81.70
4501;DHT22;2263;54.654;9.410;2022-11-20T13:31:48;4.50;81.80
4501;DHT22;2263;54.654;9.410;2022-11-20T13:34:26;4.50;81.70
4501;DHT22;2263;54.654;9.410;2022-11-20T13:36:56;4.50;81.70
4501;DHT22;2263;54.654;9.410;2022-11-20T13:39:29;4.50;81.80
4501;DHT22;2263;54.654;9.410;2022-11-20T13:42:02;4.50;81.60
4501;DHT22;2263;54.654;9.410;2022-11-20T13:44:46;4.50;81.70
4501;DHT22;2263;54.654;9.410;2022-11-20T13:47:28;4.50;81.60
4501;DHT22;2263;54.654;9.410;2022-11-20T13:49:57;4.50;81.60
4501;DHT22;2263;54.654;9.410;2022-11-20T13:53:23;4.40;81.50
4501;DHT22;2263;54.654;9.410;2022-11-20T13:58:40;4.40;81.50
4501;DHT22;2263;54.654;9.410;2022-11-20T14:03:47;4.40;81.40
4501;DHT22;2263;54.654;9.410;2022-11-20T14:06:39;4.40;81.10
4501;DHT22;2263;54.654;9.410;2022-11-20T14:09:24;4.40;81.40
4501;DHT22;2263;54.654;9.410;2022-11-20T14:11:52;4.40;81.20
4501;DHT22;2263;54.654;9.410;2022-11-20T14:14:25;4.40;81.20
4501;DHT22;2263;54.654;9.410;2022-11-20T14:17:04;4.40;81.20
4501;DHT22;2263;54.654;9.410;2022-11-20T14:19:32;4.40;81.30
4501;DHT22;2263;54.654;9.410;2022-11-20T14:22:19;4.30;81.10
4501;DHT22;2263;54.654;9.410;2022-11-20T14:25:00;4.30;81.10
4501;DHT22;2263;54.654;9.410;2022-11-20T14:27:27;4.30;81.00
4501;DHT22;2263;54.654;9.410;2022-11-20T14:29:55;4.30;81.20
4501;DHT22;2263;54.654;9.410;2022-11-20T14:32:27;4.30;81.00
4501;DHT22;2263;54.654;9.410;2022-11-20T14:35:00;4.30;80.80
4501;DHT22;2263;54.654;9.410;2022-11-20T14:37:33;4.30;81.00
4501;DHT22;2263;54.654;9.410;2022-11-20T14:40:05;4.30;81.00
4501;DHT22;2263;54.654;9.410;2022-11-20T14:42:33;4.30;81.10
4501;DHT22;2263;54.654;9.410;2022-11-20T14:45:01;4.30;81.00
4501;DHT22;2263;54.654;9.410;2022-11-20T14:47:30;4.30;80.70
4501;DHT22;2263;54.654;9.410;2022-11-20T14:49:58;4.20;80.70
4501;DHT22;2263;54.654;9.410;2022-11-20T14:52:31;4.20;80.50
4501;DHT22;2263;54.654;9.410;2022-11-20T14:54:58;4.20;81.00
4501;DHT22;2263;54.654;9.410;2022-11-20T14:57:31;4.20;80.80
4501;DHT22;2263;54.654;9.410;2022-11-20T15:02:42;4.20;81.00
4501;DHT22;2263;54.654;9.410;2022-11-20T15:05:10;4.20;80.80
4501;DHT22;2263;54.654;9.410;2022-11-20T15:07:40;4.20;81.00
4501;DHT22;2263;54.654;9.410;2022-11-20T15:10:25;4.10;80.80
4501;DHT22;2263;54.654;9.410;2022-11-20T15:12:55;4.10;80.80
4501;DHT22;2263;54.654;9.410;2022-11-20T15:15:33;4.10;80.50
4501;DHT22;2263;54.654;9.410;2022-11-20T15:18:03;4.10;80.30
4501;DHT22;2263;54.654;9.410;2022-11-20T15:20:32;4.10;80.90
4501;DHT22;2263;54.654;9.410;2022-11-20T15:22:59;4.10;80.60
4501;DHT22;2263;54.654;9.410;2022-11-20T15:25:27;4.10;80.60
4501;DHT22;2263;54.654;9.410;2022-11-20T15:27:56;4.10;80.80
4501;DHT22;2263;54.654;9.410;2022-11-20T15:30:23;4.00;80.70
4501;DHT22;2263;54.654;9.410;2022-11-20T15:32:51;4.00;80.40
4501;DHT22;2263;54.654;9.410;2022-11-20T15:35:18;4.00;80.30
4501;DHT22;2263;54.654;9.410;2022-11-20T15:37:45;4.00;80.50
4501;DHT22;2263;54.654;9.410;2022-11-20T15:40:13;4.00;80.80
4501;DHT22;2263;54.654;9.410;2022-11-20T15:42:40;4.00;80.50
4501;DHT22;2263;54.654;9.410;2022-11-20T15:45:33;4.00;80.40
4501;DHT22;2263;54.654;9.410;2022-11-20T15:48:01;4.00;80.60
4501;DHT22;2263;54.654;9.410;2022-11-20T15:51:05;3.90;80.30
4501;DHT22;2263;54.654;9.410;2022-11-20T15:53:31;3.90;80.10
4501;DHT22;2263;54.654;9.410;2022-11-20T15:55:58;3.90;79.80
4501;DHT22;2263;54.654;9.410;2022-11-20T15:58:25;3.90;79.70
4501;DHT22;2263;54.654;9.410;2022-11-20T16:00:54;3.90;79.40
4501;DHT22;2263;54.654;9.410;2022-11-20T16:03:22;3.80;79.50
4501;DHT22;2263;54.654;9.410;2022-11-20T16:05:49;3.80;79.70
4501;DHT22;2263;54.654;9.410;2022-11-20T16:08:17;3.50;77.60
4501;DHT22;2263;54.654;9.410;2022-11-20T16:10:44;3.40;79.80
4501;DHT22;2263;54.654;9.410;2022-11-20T16:13:14;3.50;79.20
4501;DHT22;2263;54.654;9.410;2022-11-20T16:16:03;3.60;79.40
4501;DHT22;2263;54.654;9.410;2022-11-20T16:18:32;3.60;79.20
4501;DHT22;2263;54.654;9.410;2022-11-20T16:21:02;3.60;79.10
4501;DHT22;2263;54.654;9.410;2022-11-20T16:23:30;3.60;79.00
4501;DHT22;2263;54.654;9.410;2022-11-20T16:26:09;3.60;79.10
4501;DHT22;2263;54.654;9.410;2022-11-20T16:28:36;3.60;79.10
4501;DHT22;2263;54.654;9.410;2022-11-20T16:33:37;3.50;78.40
4501;DHT22;2263;54.654;9.410;2022-11-20T16:36:10;3.50;78.70
4501;DHT22;2263;54.654;9.410;2022-11-20T16:38:42;3.50;78.30
4501;DHT22;2263;54.654;9.410;2022-11-20T16:41:13;3.50;78.50
4501;DHT22;2263;54.654;9.410;2022-11-20T16:43:45;3.50;78.30
4501;DHT22;2263;54.654;9.410;2022-11-20T16:46:18;3.50;78.20
4501;DHT22;2263;54.654;9.410;2022-11-20T16:48:55;3.40;78.00
4501;DHT22;2263;54.654;9.410;2022-11-20T16:51:24;3.40;78.10
4501;DHT22;2263;54.654;9.410;2022-11-20T16:53:51;3.40;78.00
4501;DHT22;2263;54.654;9.410;2022-11-20T16:56:21;3.40;78.10
4501;DHT22;2263;54.654;9.410;2022-11-20T16:58:49;3.40;77.80
4501;DHT22;2263;54.654;9.410;2022-11-20T17:01:19;3.40;78.20
4501;DHT22;2263;54.654;9.410;2022-11-20T17:03:54;3.40;78.00
4501;DHT22;2263;54.654;9.410;2022-11-20T17:06:28;3.40;78.10
4501;DHT22;2263;54.654;9.410;2022-11-20T17:08:57;3.40;78.10
4501;DHT22;2263;54.654;9.410;2022-11-20T17:11:25;3.30;77.90
4501;DHT22;2263;54.654;9.410;2022-11-20T17:13:54;3.30;77.80
4501;DHT22;2263;54.654;9.410;2022-11-20T17:16:22;3.30;77.80
4501;DHT22;2263;54.654;9.410;2022-11-20T17:18:50;3.30;77.80
4501;DHT22;2263;54.654;9.410;2022-11-20T17:21:18;3.30;77.70
4501;DHT22;2263;54.654;9.410;2022-11-20T17:23:45;3.20;77.30
4501;DHT22;2263;54.654;9.410;2022-11-20T17:26:18;3.20;77.70
4501;DHT22;2263;54.654;9.410;2022-11-20T17:28:51;3.20;77.50
4501;DHT22;2263;54.654;9.410;2022-11-20T17:31:19;3.20;77.50
4501;DHT22;2263;54.654;9.410;2022-11-20T17:33:47;3.20;77.20
4501;DHT22;2263;54.654;9.410;2022-11-20T17:36:15;3.10;77.10
4501;DHT22;2263;54.654;9.410;2022-11-20T17:38:43;3.10;77.10
4501;DHT22;2263;54.654;9.410;2022-11-20T17:41:13;3.10;77.30
4501;DHT22;2263;54.654;9.410;2022-11-20T17:43:41;3.10;77.00
4501;DHT22;2263;54.654;9.410;2022-11-20T17:46:17;3.10;77.20
4501;DHT22;2263;54.654;9.410;2022-11-20T17:48:45;3.10;76.90
4501;DHT22;2263;54.654;9.410;2022-11-20T17:51:15;3.10;77.20
4501;DHT22;2263;54.654;9.410;2022-11-20T17:53:46;3.10;76.80
4501;DHT22;2263;54.654;9.410;2022-11-20T17:56:13;3.00;77.00
4501;DHT22;2263;54.654;9.410;2022-11-20T17:59:06;3.00;76.70
4501;DHT22;2263;54.654;9.410;2022-11-20T18:01:34;3.00;76.70
4501;DHT22;2263;54.654;9.410;2022-11-20T18:04:02;3.00;76.80
4501;DHT22;2263;54.654;9.410;2022-11-20T18:06:30;3.00;77.00
4501;DHT22;2263;54.654;9.410;2022-11-20T18:08:59;3.00;77.00
4501;DHT22;2263;54.654;9.410;2022-11-20T18:11:31;2.90;76.60
4501;DHT22;2263;54.654;9.410;2022-11-20T18:14:04;2.90;76.70
4501;DHT22;2263;54.654;9.410;2022-11-20T18:16:53;2.90;76.80
4501;DHT22;2263;54.654;9.410;2022-11-20T18:19:26;2.90;76.60